createdAt,value
2023-12-15T00:02:21.445Z,21.60
2023-12-15T00:04:51.056Z,21.60
2023-12-15T00:07:19.464Z,21.60
2023-12-15T00:09:47.871Z,21.60
2023-12-15T00:12:16.776Z,21.60
2023-12-15T00:14:45.341Z,21.60
2023-12-15T00:17:13.825Z,21.60
2023-12-15T00:19:42.006Z,21.60
2023-12-15T00:22:11.925Z,21.60
2023-12-15T00:24:40.118Z,21.60
2023-12-15T00:27:08.275Z,21.60
2023-12-15T00:29:36.743Z,21.60
2023-12-15T00:32:05.501Z,21.60
2023-12-15T00:34:33.823Z,21.60
2023-12-15T00:37:02.016Z,21.60
2023-12-15T00:39:32.673Z,21.60
2023-12-15T00:42:00.949Z,21.70
2023-12-15T00:44:29.276Z,21.70
2023-12-15T00:46:57.717Z,21.60
2023-12-15T00:49:26.742Z,21.60
2023-12-15T00:51:55.258Z,21.60
2023-12-15T00:54:23.471Z,21.70
2023-12-15T00:56:53.101Z,21.70
2023-12-15T00:59:21.339Z,21.70
2023-12-15T01:01:50.019Z,21.70
2023-12-15T01:04:18.830Z,21.70
2023-12-15T01:06:47.253Z,21.70
2023-12-15T01:09:15.411Z,21.70
2023-12-15T01:11:43.733Z,21.70
2023-12-15T01:14:13.301Z,21.70
2023-12-15T01:16:46.452Z,21.70
2023-12-15T01:19:14.949Z,21.70
2023-12-15T01:21:43.268Z,21.70
2023-12-15T01:24:12.069Z,21.70
2023-12-15T01:26:40.478Z,21.70
2023-12-15T01:29:08.898Z,21.70
2023-12-15T01:31:38.624Z,21.70
2023-12-15T01:34:06.893Z,21.70
2023-12-15T01:36:35.848Z,21.70
2023-12-15T01:39:04.472Z,21.70
2023-12-15T01:41:33.124Z,21.70
2023-12-15T01:44:01.515Z,21.70
2023-12-15T01:46:29.740Z,21.70
2023-12-15T01:48:59.563Z,21.70
2023-12-15T01:51:28.129Z,21.70
2023-12-15T01:53:56.352Z,21.70
2023-12-15T01:56:25.002Z,21.70
2023-12-15T01:58:53.479Z,21.70
2023-12-15T02:01:21.807Z,21.70
2023-12-15T02:03:50.450Z,21.70
2023-12-15T02:06:20.136Z,21.70
2023-12-15T02:08:49.079Z,21.80
2023-12-15T02:11:18.694Z,21.70
2023-12-15T02:13:46.981Z,21.70
2023-12-15T02:16:15.349Z,21.70
2023-12-15T02:18:43.574Z,21.70
2023-12-15T02:21:11.846Z,21.80
2023-12-15T02:23:41.411Z,21.70
2023-12-15T02:26:09.765Z,21.70
2023-12-15T02:28:38.085Z,21.70
2023-12-15T02:31:06.815Z,21.70
2023-12-15T02:33:35.275Z,21.70
2023-12-15T02:36:03.893Z,21.70
2023-12-15T02:38:32.114Z,21.70
2023-12-15T02:41:01.671Z,21.70
2023-12-15T02:43:29.987Z,21.70
2023-12-15T02:45:58.476Z,21.70
2023-12-15T02:48:26.891Z,21.70
2023-12-15T02:50:55.206Z,21.80
2023-12-15T02:53:23.479Z,21.70
2023-12-15T02:55:51.786Z,21.70
2023-12-15T02:58:21.805Z,21.70
2023-12-15T03:00:50.065Z,21.80
2023-12-15T03:03:18.504Z,21.70
2023-12-15T03:05:47.078Z,21.80
2023-12-15T03:08:15.451Z,21.80
2023-12-15T03:10:43.792Z,21.80
2023-12-15T03:13:12.007Z,21.80
2023-12-15T03:15:41.535Z,21.80
2023-12-15T03:18:10.324Z,21.80
2023-12-15T03:20:38.562Z,21.80
2023-12-15T03:23:06.761Z,21.80
2023-12-15T03:25:34.952Z,21.80
2023-12-15T03:28:03.172Z,21.80
2023-12-15T03:30:31.387Z,21.80
2023-12-15T03:33:01.035Z,21.80
2023-12-15T03:35:29.363Z,21.80
2023-12-15T03:37:57.588Z,21.80
2023-12-15T03:40:25.882Z,21.80
2023-12-15T03:42:54.032Z,21.80
2023-12-15T03:45:22.636Z,21.80
2023-12-15T03:47:50.990Z,21.80
2023-12-15T03:50:20.759Z,21.80
2023-12-15T03:52:49.293Z,21.80
2023-12-15T03:55:18.311Z,21.80
2023-12-15T03:57:46.464Z,21.80
2023-12-15T04:00:15.669Z,21.80
2023-12-15T04:02:44.308Z,21.80
2023-12-15T04:05:13.441Z,21.80
2023-12-15T04:07:43.212Z,21.80
2023-12-15T04:10:11.989Z,21.80
2023-12-15T04:12:40.162Z,21.80
2023-12-15T04:15:10.092Z,21.80
2023-12-15T04:17:38.825Z,21.80
2023-12-15T04:20:10.425Z,21.80
2023-12-15T04:22:38.675Z,21.80
2023-12-15T04:25:09.455Z,21.70
2023-12-15T04:27:40.321Z,21.80
2023-12-15T04:30:10.144Z,21.70
2023-12-15T04:32:38.798Z,21.80
2023-12-15T04:35:08.196Z,21.70
2023-12-15T04:37:36.855Z,21.70
2023-12-15T04:40:04.717Z,21.70
2023-12-15T04:42:34.309Z,21.70
2023-12-15T04:45:02.518Z,21.70
2023-12-15T04:47:30.768Z,21.70
2023-12-15T04:49:59.007Z,21.70
2023-12-15T04:52:27.758Z,21.70
2023-12-15T04:54:55.936Z,21.70
2023-12-15T04:57:24.247Z,21.70
2023-12-15T04:59:53.876Z,21.70
2023-12-15T05:02:22.416Z,21.60
2023-12-15T05:04:50.685Z,21.60
2023-12-15T05:07:19.487Z,21.60
2023-12-15T05:09:49.162Z,21.60
2023-12-15T05:12:18.121Z,21.60
2023-12-15T05:14:46.399Z,21.50
2023-12-15T05:17:16.191Z,21.50
2023-12-15T05:19:44.668Z,21.50
2023-12-15T05:22:13.070Z,21.50
2023-12-15T05:24:41.278Z,21.50
2023-12-15T05:27:09.787Z,21.40
2023-12-15T05:29:45.050Z,21.40
2023-12-15T05:32:13.479Z,21.40
2023-12-15T05:34:43.641Z,21.40
2023-12-15T05:37:11.946Z,21.40
2023-12-15T05:39:43.356Z,21.30
2023-12-15T05:42:11.896Z,21.30
2023-12-15T05:44:41.815Z,21.30
2023-12-15T05:47:11.324Z,21.30
2023-12-15T05:49:42.579Z,21.30
2023-12-15T05:52:11.306Z,21.20
2023-12-15T05:54:40.537Z,21.30
2023-12-15T05:57:11.117Z,21.20
2023-12-15T05:59:41.444Z,21.20
2023-12-15T06:02:10.754Z,21.20
2023-12-15T06:04:39.062Z,21.20
2023-12-15T06:07:08.902Z,21.20
2023-12-15T06:09:38.710Z,21.20
2023-12-15T06:12:08.984Z,21.10
2023-12-15T06:14:38.030Z,21.10
2023-12-15T06:17:07.775Z,21.10
2023-12-15T06:19:36.737Z,21.10
2023-12-15T06:22:05.044Z,21.10
2023-12-15T06:24:33.612Z,21.20
2023-12-15T06:27:02.247Z,21.20
2023-12-15T06:29:30.556Z,21.10
2023-12-15T06:32:01.314Z,21.20
2023-12-15T06:34:30.356Z,21.20
2023-12-15T06:36:58.664Z,21.20
2023-12-15T06:39:26.952Z,21.20
2023-12-15T06:41:58.518Z,21.30
2023-12-15T06:44:27.189Z,21.30
2023-12-15T06:46:55.499Z,21.30
2023-12-15T06:49:31.384Z,21.40
2023-12-15T06:51:59.762Z,21.40
2023-12-15T06:54:27.938Z,21.40
2023-12-15T06:56:57.621Z,21.40
2023-12-15T06:59:26.237Z,21.40
2023-12-15T07:01:54.664Z,21.50
2023-12-15T07:04:23.125Z,21.40
2023-12-15T07:06:51.541Z,21.50
2023-12-15T07:09:20.322Z,21.50
2023-12-15T07:11:48.821Z,21.50
2023-12-15T07:14:18.703Z,21.50
2023-12-15T07:16:46.886Z,21.50
2023-12-15T07:19:15.127Z,21.50
2023-12-15T07:21:43.978Z,21.50
2023-12-15T07:24:12.158Z,21.50
2023-12-15T07:26:40.419Z,21.50
2023-12-15T07:29:08.755Z,21.50
2023-12-15T07:31:38.433Z,21.50
2023-12-15T07:34:06.776Z,21.50
2023-12-15T07:36:35.098Z,21.50
2023-12-15T07:39:04.013Z,21.50
2023-12-15T07:41:32.536Z,21.40
2023-12-15T07:44:00.855Z,21.40
2023-12-15T07:46:29.097Z,21.50
2023-12-15T07:48:58.746Z,21.50
2023-12-15T07:51:27.000Z,21.50
2023-12-15T07:53:55.225Z,21.50
2023-12-15T07:56:24.427Z,21.50
2023-12-15T07:58:52.915Z,21.50
2023-12-15T08:01:21.200Z,21.40
2023-12-15T08:03:49.873Z,21.40
2023-12-15T08:06:19.596Z,21.40
2023-12-15T08:08:48.413Z,21.50
2023-12-15T08:11:17.125Z,21.50
2023-12-15T08:13:45.383Z,21.50
2023-12-15T08:16:14.785Z,21.50
2023-12-15T08:18:44.867Z,21.50
2023-12-15T08:21:13.640Z,21.50
2023-12-15T08:23:43.379Z,21.40
2023-12-15T08:26:20.282Z,21.50
2023-12-15T08:28:48.644Z,21.50
2023-12-15T08:31:17.077Z,21.40
2023-12-15T08:33:45.877Z,21.50
2023-12-15T08:36:14.088Z,21.40
2023-12-15T08:38:43.749Z,21.40
2023-12-15T08:41:12.283Z,21.50
2023-12-15T08:43:41.115Z,21.40
2023-12-15T08:46:09.638Z,21.50
2023-12-15T08:48:38.369Z,21.50
2023-12-15T08:51:07.152Z,21.50
2023-12-15T08:53:38.022Z,21.50
2023-12-15T08:56:08.469Z,21.50
2023-12-15T08:58:36.900Z,21.50
2023-12-15T09:01:05.249Z,21.50
2023-12-15T09:03:34.087Z,21.50
2023-12-15T09:08:33.880Z,21.50
2023-12-15T09:11:02.353Z,21.50
2023-12-15T09:13:30.996Z,21.50
2023-12-15T09:15:59.260Z,21.50
2023-12-15T09:18:27.813Z,21.50
2023-12-15T09:20:57.385Z,21.50
2023-12-15T09:23:25.737Z,21.50
2023-12-15T09:25:54.769Z,21.50
2023-12-15T09:28:23.105Z,21.50
2023-12-15T09:30:53.159Z,21.50
2023-12-15T09:33:21.626Z,21.50
2023-12-15T09:35:54.621Z,21.50
2023-12-15T09:38:23.301Z,21.50
2023-12-15T09:40:53.314Z,21.50
2023-12-15T09:43:21.556Z,21.50
2023-12-15T09:45:49.764Z,21.50
2023-12-15T09:48:19.824Z,21.50
2023-12-15T09:50:51.829Z,21.50
2023-12-15T09:53:20.619Z,21.50
2023-12-15T09:55:48.884Z,21.50
2023-12-15T09:58:17.090Z,21.50
2023-12-15T10:00:45.366Z,21.50
2023-12-15T10:03:13.627Z,21.50
2023-12-15T10:05:43.438Z,21.50
2023-12-15T10:08:11.842Z,21.40
2023-12-15T10:10:40.416Z,21.40
2023-12-15T10:13:08.645Z,21.40
2023-12-15T10:15:36.848Z,21.40
2023-12-15T10:18:06.031Z,21.40
2023-12-15T10:20:34.582Z,21.30
2023-12-15T10:23:04.897Z,21.30
2023-12-15T10:25:34.087Z,21.30
2023-12-15T10:28:03.361Z,21.30
2023-12-15T10:30:31.932Z,21.30
2023-12-15T10:32:59.594Z,21.20
2023-12-15T10:35:29.436Z,21.20
2023-12-15T10:37:57.984Z,21.20
2023-12-15T10:40:27.590Z,21.20
2023-12-15T10:42:55.985Z,21.10
2023-12-15T10:45:25.229Z,21.20
2023-12-15T10:47:53.609Z,21.10
2023-12-15T10:50:21.953Z,21.10
2023-12-15T10:52:50.174Z,21.10
2023-12-15T10:55:20.880Z,21.00
2023-12-15T10:57:50.442Z,21.00
2023-12-15T11:00:19.761Z,21.00
2023-12-15T11:02:48.248Z,21.00
2023-12-15T11:05:18.896Z,20.90
2023-12-15T11:07:51.599Z,20.90
2023-12-15T11:10:19.829Z,20.90
2023-12-15T11:12:48.751Z,20.90
2023-12-15T11:15:20.227Z,20.90
2023-12-15T11:17:49.884Z,20.80
2023-12-15T11:20:43.068Z,20.80
2023-12-15T11:23:13.182Z,20.80
2023-12-15T11:25:54.726Z,20.80
2023-12-15T11:28:22.993Z,20.80
2023-12-15T11:30:54.394Z,20.70
2023-12-15T11:33:45.240Z,20.80
2023-12-15T11:36:15.379Z,20.70
2023-12-15T11:38:44.011Z,20.70
2023-12-15T11:41:12.704Z,20.70
2023-12-15T11:43:44.604Z,20.70
2023-12-15T11:46:14.400Z,20.60
2023-12-15T11:48:43.321Z,20.60
2023-12-15T11:51:11.711Z,20.60
2023-12-15T11:53:42.512Z,20.60
2023-12-15T11:56:12.912Z,20.60
2023-12-15T11:58:41.457Z,20.60
2023-12-15T12:01:11.032Z,20.60
2023-12-15T12:03:40.649Z,20.50
2023-12-15T12:06:10.078Z,20.50
2023-12-15T12:08:38.699Z,20.50
2023-12-15T12:11:10.123Z,20.50
2023-12-15T12:13:41.133Z,20.50
2023-12-15T12:16:09.633Z,20.50
2023-12-15T12:18:37.952Z,20.60
2023-12-15T12:21:08.557Z,20.60
2023-12-15T12:23:43.341Z,20.60
2023-12-15T12:26:15.684Z,20.60
2023-12-15T12:28:46.410Z,20.70
2023-12-15T12:31:16.461Z,20.70
2023-12-15T12:33:44.951Z,20.70
2023-12-15T12:36:16.814Z,20.80
2023-12-15T12:38:46.264Z,20.80
2023-12-15T12:41:14.680Z,20.80
2023-12-15T12:43:43.564Z,20.80
2023-12-15T12:46:12.820Z,20.90
2023-12-15T12:48:41.836Z,20.90
2023-12-15T12:51:10.439Z,20.90
2023-12-15T12:53:40.185Z,20.90
2023-12-15T12:56:12.091Z,20.90
2023-12-15T12:58:41.017Z,20.90
2023-12-15T13:01:10.207Z,21.00
2023-12-15T13:03:40.045Z,21.00
2023-12-15T13:06:10.178Z,21.00
2023-12-15T13:08:41.523Z,21.00
2023-12-15T13:11:10.008Z,21.00
2023-12-15T13:13:38.478Z,21.00
2023-12-15T13:16:07.904Z,21.00
2023-12-15T13:18:36.918Z,21.00
2023-12-15T13:21:05.816Z,21.00
2023-12-15T13:23:34.132Z,21.00
2023-12-15T13:26:04.060Z,21.00
2023-12-15T13:28:36.515Z,21.10
2023-12-15T13:31:06.204Z,21.10
2023-12-15T13:33:34.583Z,21.10
2023-12-15T13:36:10.674Z,21.10
2023-12-15T13:38:44.341Z,21.10
2023-12-15T13:41:14.105Z,21.10
2023-12-15T13:43:43.779Z,21.10
2023-12-15T13:46:12.187Z,21.10
2023-12-15T13:48:40.925Z,21.10
2023-12-15T13:51:10.431Z,21.10
2023-12-15T13:53:39.192Z,21.10
2023-12-15T13:56:08.239Z,21.10
2023-12-15T13:58:37.801Z,21.10
2023-12-15T14:01:06.098Z,21.10
2023-12-15T14:03:34.497Z,21.10
2023-12-15T14:06:03.199Z,21.10
2023-12-15T14:08:31.701Z,21.10
2023-12-15T14:11:02.605Z,21.10
2023-12-15T14:13:32.779Z,21.10
2023-12-15T14:16:08.587Z,21.10
2023-12-15T14:18:39.649Z,21.10
2023-12-15T14:21:08.318Z,21.10
2023-12-15T14:23:36.582Z,21.20
2023-12-15T14:26:05.879Z,21.10
2023-12-15T14:28:34.100Z,21.20
2023-12-15T14:31:04.380Z,21.20
2023-12-15T14:33:32.909Z,21.10
2023-12-15T14:36:01.238Z,21.20
2023-12-15T14:38:29.425Z,21.10
2023-12-15T14:41:00.163Z,21.20
2023-12-15T14:43:29.844Z,21.10
2023-12-15T14:45:58.437Z,21.20
2023-12-15T14:48:28.143Z,21.10
2023-12-15T14:50:56.459Z,21.10
2023-12-15T14:53:25.304Z,21.10
2023-12-15T14:55:53.599Z,21.20
2023-12-15T14:58:21.781Z,21.10
2023-12-15T15:00:50.101Z,21.20
2023-12-15T15:03:18.411Z,21.10
2023-12-15T15:05:48.095Z,21.20
2023-12-15T15:08:16.317Z,21.10
2023-12-15T15:10:44.869Z,21.10
2023-12-15T15:13:13.624Z,21.20
2023-12-15T15:15:41.834Z,21.20
2023-12-15T15:18:10.176Z,21.10
2023-12-15T15:20:39.232Z,21.20
2023-12-15T15:23:09.012Z,21.20
2023-12-15T15:25:37.290Z,21.20
2023-12-15T15:28:05.460Z,21.20
2023-12-15T15:30:33.983Z,21.20
2023-12-15T15:33:02.287Z,21.20
2023-12-15T15:35:31.560Z,21.20
2023-12-15T15:38:00.575Z,21.20
2023-12-15T15:40:30.674Z,21.20
2023-12-15T15:42:58.866Z,21.20
2023-12-15T15:45:27.197Z,21.20
2023-12-15T15:47:56.395Z,21.20
2023-12-15T15:50:25.065Z,21.20
2023-12-15T15:52:53.575Z,21.20
2023-12-15T15:55:21.833Z,21.20
2023-12-15T15:57:51.633Z,21.20
2023-12-15T16:00:21.185Z,21.20
2023-12-15T16:02:49.617Z,21.20
2023-12-15T16:05:18.191Z,21.20
2023-12-15T16:07:46.682Z,21.20
2023-12-15T16:10:15.608Z,21.20
2023-12-15T16:12:44.635Z,21.20
2023-12-15T16:15:14.641Z,21.20
2023-12-15T16:17:43.495Z,21.20
2023-12-15T16:20:12.557Z,21.10
2023-12-15T16:22:41.264Z,21.10
2023-12-15T16:25:10.206Z,21.10
2023-12-15T16:27:39.136Z,21.10
2023-12-15T16:30:08.943Z,21.10
2023-12-15T16:32:43.572Z,21.10
2023-12-15T16:35:12.276Z,21.10
2023-12-15T16:37:41.040Z,21.00
2023-12-15T16:40:10.875Z,21.00
2023-12-15T16:42:43.635Z,21.00
2023-12-15T16:45:12.457Z,21.00
2023-12-15T16:47:43.301Z,21.00
2023-12-15T16:50:11.882Z,21.00
2023-12-15T16:52:40.392Z,20.90
2023-12-15T16:55:09.438Z,21.00
2023-12-15T16:57:38.300Z,20.90
2023-12-15T17:00:08.246Z,20.90
2023-12-15T17:02:36.447Z,20.90
2023-12-15T17:05:07.076Z,20.90
2023-12-15T17:07:35.394Z,20.90
2023-12-15T17:10:03.925Z,20.80
2023-12-15T17:12:32.212Z,20.80
2023-12-15T17:15:02.057Z,20.80
2023-12-15T17:17:30.246Z,20.80
2023-12-15T17:19:58.993Z,20.80
2023-12-15T17:22:30.688Z,20.80
2023-12-15T17:24:59.086Z,20.70
2023-12-15T17:27:27.420Z,20.70
2023-12-15T17:29:56.034Z,20.70
2023-12-15T17:32:24.279Z,20.70
2023-12-15T17:34:52.516Z,20.70
2023-12-15T17:37:22.818Z,20.70
2023-12-15T17:39:52.532Z,20.60
2023-12-15T17:42:20.828Z,20.60
2023-12-15T17:44:49.089Z,20.60
2023-12-15T17:47:17.379Z,20.60
2023-12-15T17:49:45.699Z,20.60
2023-12-15T17:52:14.024Z,20.60
2023-12-15T17:54:42.458Z,20.50
2023-12-15T17:57:12.117Z,20.60
2023-12-15T17:59:40.383Z,20.60
2023-12-15T18:02:08.941Z,20.50
2023-12-15T18:04:37.968Z,20.50
2023-12-15T18:07:06.392Z,20.50
2023-12-15T18:09:34.825Z,20.60
2023-12-15T18:12:03.798Z,20.60
2023-12-15T18:14:33.647Z,20.60
2023-12-15T18:17:01.926Z,20.60
2023-12-15T18:19:30.259Z,20.70
2023-12-15T18:21:58.624Z,20.70
2023-12-15T18:24:26.836Z,20.70
2023-12-15T18:26:55.094Z,20.70
2023-12-15T18:29:26.088Z,20.80
2023-12-15T18:31:55.910Z,20.80
2023-12-15T18:34:24.198Z,20.80
2023-12-15T18:36:52.704Z,20.80
2023-12-15T18:39:20.971Z,20.90
2023-12-15T18:41:49.374Z,20.90
2023-12-15T18:44:17.728Z,20.90
2023-12-15T18:46:46.993Z,20.90
2023-12-15T18:49:16.996Z,21.00
2023-12-15T18:51:45.350Z,21.00
2023-12-15T18:54:14.792Z,21.00
2023-12-15T18:56:44.633Z,21.00
2023-12-15T18:59:13.233Z,21.00
2023-12-15T19:01:42.655Z,21.10
2023-12-15T19:04:11.935Z,21.10
2023-12-15T19:06:41.871Z,21.10
2023-12-15T19:09:11.881Z,21.10
2023-12-15T19:11:40.409Z,21.10
2023-12-15T19:14:09.190Z,21.10
2023-12-15T19:16:37.526Z,21.10
2023-12-15T19:19:06.489Z,21.10
2023-12-15T19:21:34.774Z,21.10
2023-12-15T19:24:06.384Z,21.10
2023-12-15T19:26:34.591Z,21.10
2023-12-15T19:29:02.828Z,21.10
2023-12-15T19:31:31.054Z,21.10
2023-12-15T19:33:59.781Z,21.10
2023-12-15T19:36:28.188Z,21.20
2023-12-15T19:38:56.492Z,21.20
2023-12-15T19:41:27.586Z,21.10
2023-12-15T19:43:56.301Z,21.10
2023-12-15T19:46:24.789Z,21.20
2023-12-15T19:48:53.967Z,21.10
2023-12-15T19:51:22.638Z,21.20
2023-12-15T19:53:51.092Z,21.10
2023-12-15T19:56:23.876Z,21.20
2023-12-15T19:58:53.658Z,21.10
2023-12-15T20:01:29.269Z,21.20
2023-12-15T20:03:57.873Z,21.20
2023-12-15T20:06:26.948Z,21.10
2023-12-15T20:08:55.370Z,21.20
2023-12-15T20:11:23.733Z,21.20
2023-12-15T20:13:54.090Z,21.20
2023-12-15T20:16:22.709Z,21.20
2023-12-15T20:18:52.533Z,21.20
2023-12-15T20:21:20.877Z,21.20
2023-12-15T20:23:49.223Z,21.20
2023-12-15T20:26:17.418Z,21.20
2023-12-15T20:28:45.858Z,21.20
2023-12-15T20:31:16.064Z,21.20
2023-12-15T20:33:44.721Z,21.20
2023-12-15T20:36:13.453Z,21.20
2023-12-15T20:38:41.888Z,21.20
2023-12-15T20:41:10.468Z,21.20
2023-12-15T20:43:40.392Z,21.20
2023-12-15T20:46:10.252Z,21.20
2023-12-15T20:48:39.975Z,21.20
2023-12-15T20:51:09.942Z,21.20
2023-12-15T20:53:38.321Z,21.20
2023-12-15T20:56:07.216Z,21.20
2023-12-15T20:58:35.477Z,21.20
2023-12-15T21:01:03.949Z,21.10
2023-12-15T21:03:32.697Z,21.10
2023-12-15T21:06:02.390Z,21.10
2023-12-15T21:08:30.752Z,21.10
2023-12-15T21:10:59.016Z,21.10
2023-12-15T21:13:27.244Z,21.10
2023-12-15T21:15:55.503Z,21.10
2023-12-15T21:18:23.778Z,21.10
2023-12-15T21:20:52.188Z,21.10
2023-12-15T21:23:21.901Z,21.10
2023-12-15T21:25:50.401Z,21.00
2023-12-15T21:28:18.696Z,21.00
2023-12-15T21:30:46.975Z,21.00
2023-12-15T21:33:15.434Z,21.00
2023-12-15T21:35:50.883Z,20.90
2023-12-15T21:38:25.597Z,20.90
2023-12-15T21:40:53.915Z,20.90
2023-12-15T21:43:22.164Z,20.90
2023-12-15T21:45:50.437Z,20.80
2023-12-15T21:48:18.827Z,20.80
2023-12-15T21:50:47.683Z,20.80
2023-12-15T21:53:16.492Z,20.80
2023-12-15T21:55:46.084Z,20.80
2023-12-15T21:58:14.341Z,20.70
2023-12-15T22:00:42.600Z,20.70
2023-12-15T22:03:10.869Z,20.70
2023-12-15T22:05:39.641Z,20.70
2023-12-15T22:08:08.408Z,20.70
2023-12-15T22:10:36.685Z,20.70
2023-12-15T22:13:08.390Z,20.70
2023-12-15T22:15:36.910Z,20.70
2023-12-15T22:18:05.546Z,20.70
2023-12-15T22:20:34.982Z,20.70
2023-12-15T22:23:02.195Z,20.70
2023-12-15T22:25:30.481Z,20.60
2023-12-15T22:27:58.951Z,20.70
2023-12-15T22:30:29.225Z,20.60
2023-12-15T22:32:57.630Z,20.60
2023-12-15T22:35:25.902Z,20.60
2023-12-15T22:37:54.539Z,20.60
2023-12-15T22:40:23.155Z,20.60
2023-12-15T22:42:51.373Z,20.60
2023-12-15T22:45:19.618Z,20.60
2023-12-15T22:47:49.272Z,20.60
2023-12-15T22:50:17.699Z,20.60
2023-12-15T22:52:45.958Z,20.60
2023-12-15T22:55:14.178Z,20.60
2023-12-15T22:57:42.640Z,20.50
2023-12-15T23:00:12.362Z,20.60
2023-12-15T23:02:40.958Z,20.60
2023-12-15T23:05:10.865Z,20.60
2023-12-15T23:07:40.668Z,20.60
2023-12-15T23:10:09.931Z,20.60
2023-12-15T23:12:38.468Z,20.70
2023-12-15T23:15:14.910Z,20.70
2023-12-15T23:17:46.896Z,20.70
2023-12-15T23:20:17.395Z,20.80
2023-12-15T23:22:46.324Z,20.80
2023-12-15T23:25:14.609Z,20.90
2023-12-15T23:27:43.190Z,20.90
2023-12-15T23:30:12.940Z,21.00
2023-12-15T23:32:41.284Z,21.00
2023-12-15T23:35:10.488Z,21.00
2023-12-15T23:37:40.478Z,21.00
2023-12-15T23:40:09.957Z,21.10
2023-12-15T23:42:38.297Z,21.10
2023-12-15T23:45:08.489Z,21.10
2023-12-15T23:47:36.861Z,21.10
2023-12-15T23:50:06.498Z,21.10
2023-12-15T23:52:34.717Z,21.10
2023-12-15T23:55:04.550Z,21.10
2023-12-15T23:57:32.810Z,21.20
